createdAt,value
2022-09-04T00:00:19.142Z,3.20
2022-09-04T00:03:23.783Z,3.20
2022-09-04T00:05:57.240Z,3.20
2022-09-04T00:09:05.891Z,3.20
2022-09-04T00:11:44.929Z,3.10
2022-09-04T00:14:39.142Z,3.10
2022-09-04T00:17:29.017Z,3.10
2022-09-04T00:20:02.325Z,3.10
2022-09-04T00:23:05.253Z,3.10
2022-09-04T00:25:59.739Z,3.00
2022-09-04T00:28:41.700Z,3.00
2022-09-04T00:31:37.444Z,3.00
2022-09-04T00:34:14.050Z,3.00
2022-09-04T00:36:49.926Z,2.90
2022-09-04T00:39:26.644Z,2.90
2022-09-04T00:42:13.166Z,2.90
2022-09-04T00:45:28.667Z,2.90
2022-09-04T00:48:06.350Z,2.90
2022-09-04T00:51:02.821Z,2.90
2022-09-04T00:54:07.283Z,2.80
2022-09-04T00:57:11.300Z,2.80
2022-09-04T01:00:17.058Z,2.70
2022-09-04T01:03:02.279Z,2.70
2022-09-04T01:05:53.164Z,2.70
2022-09-04T01:08:50.545Z,2.60
2022-09-04T01:12:00.996Z,2.60
2022-09-04T01:14:53.128Z,2.60
2022-09-04T01:17:51.256Z,2.60
2022-09-04T01:20:28.172Z,2.60
2022-09-04T01:23:20.038Z,2.50
2022-09-04T01:26:11.476Z,2.50
2022-09-04T01:28:51.319Z,2.50
2022-09-04T01:31:24.489Z,2.40
2022-09-04T01:33:57.859Z,2.40
2022-09-04T01:36:28.216Z,2.40
2022-09-04T01:39:02.970Z,2.40
2022-09-04T01:41:41.787Z,2.40
2022-09-04T01:44:10.814Z,2.40
2022-09-04T01:46:59.510Z,2.40
2022-09-04T01:49:42.956Z,2.40
2022-09-04T01:52:22.118Z,2.40
2022-09-04T01:55:07.534Z,2.30
2022-09-04T01:57:55.001Z,2.30
2022-09-04T02:00:25.147Z,2.30
2022-09-04T02:03:16.137Z,2.30
2022-09-04T02:06:00.592Z,2.30
2022-09-04T02:09:00.230Z,2.30
2022-09-04T02:11:32.352Z,2.30
2022-09-04T02:14:09.625Z,2.20
2022-09-04T02:17:01.401Z,2.20
2022-09-04T02:19:47.891Z,2.20
2022-09-04T02:22:23.625Z,2.20
2022-09-04T02:25:04.955Z,2.20
2022-09-04T02:27:53.663Z,2.20
2022-09-04T02:30:21.671Z,2.20
2022-09-04T02:33:01.200Z,2.20
2022-09-04T02:35:43.434Z,2.20
2022-09-04T02:38:40.248Z,2.10
2022-09-04T02:41:34.405Z,2.10
2022-09-04T02:44:08.201Z,2.10
2022-09-04T02:46:47.703Z,2.10
2022-09-04T02:49:33.585Z,2.10
2022-09-04T02:52:33.660Z,2.10
2022-09-04T02:55:09.830Z,2.10
2022-09-04T02:57:58.093Z,2.10
2022-09-04T03:00:48.898Z,2.10
2022-09-04T03:03:21.632Z,2.10
2022-09-04T03:06:00.156Z,2.10
2022-09-04T03:08:37.101Z,2.10
2022-09-04T03:11:33.260Z,2.10
2022-09-04T03:14:12.774Z,2.00
2022-09-04T03:16:59.954Z,2.00
2022-09-04T03:20:18.151Z,2.10
2022-09-04T03:22:51.229Z,2.00
2022-09-04T03:25:24.261Z,2.00
2022-09-04T03:27:51.547Z,2.00
2022-09-04T03:30:19.310Z,1.90
2022-09-04T03:33:13.217Z,1.90
2022-09-04T03:35:47.163Z,1.90
2022-09-04T03:38:34.804Z,1.90
2022-09-04T03:41:30.357Z,1.90
2022-09-04T03:44:32.566Z,1.90
2022-09-04T03:47:38.753Z,1.90
2022-09-04T03:50:27.643Z,1.90
2022-09-04T03:53:26.534Z,2.00
2022-09-04T03:56:30.567Z,1.90
2022-09-04T03:59:08.413Z,2.00
2022-09-04T04:01:44.739Z,2.00
2022-09-04T04:04:35.920Z,2.00
2022-09-04T04:07:26.302Z,2.00
2022-09-04T04:10:00.002Z,2.00
2022-09-04T04:12:32.824Z,2.10
2022-09-04T04:15:21.681Z,2.10
2022-09-04T04:18:04.794Z,2.10
2022-09-04T04:21:04.945Z,2.20
2022-09-04T04:24:03.362Z,2.20
2022-09-04T04:26:58.356Z,2.20
2022-09-04T04:29:42.165Z,2.30
2022-09-04T04:32:44.176Z,2.30
2022-09-04T04:35:25.375Z,2.40
2022-09-04T04:38:18.767Z,2.50
2022-09-04T04:41:00.753Z,2.50
2022-09-04T04:43:46.533Z,2.60
2022-09-04T04:46:29.614Z,2.70
2022-09-04T04:49:04.648Z,2.70
2022-09-04T04:51:57.091Z,2.80
2022-09-04T04:54:57.266Z,2.90
2022-09-04T04:57:27.579Z,3.00
2022-09-04T05:00:07.388Z,3.10
2022-09-04T05:03:04.931Z,3.20
2022-09-04T05:06:02.513Z,3.30
2022-09-04T05:09:10.130Z,3.40
2022-09-04T05:12:11.133Z,3.50
2022-09-04T05:14:50.328Z,3.70
2022-09-04T05:17:26.284Z,3.80
2022-09-04T05:20:15.141Z,3.90
2022-09-04T05:22:56.124Z,4.10
2022-09-04T05:25:49.911Z,4.20
2022-09-04T05:28:30.492Z,4.30
2022-09-04T05:31:22.477Z,4.50
2022-09-04T05:34:08.587Z,4.60
2022-09-04T05:37:12.855Z,4.80
2022-09-04T05:40:03.429Z,4.90
2022-09-04T05:42:49.209Z,5.30
2022-09-04T05:45:38.033Z,5.60
2022-09-04T05:48:08.309Z,5.90
2022-09-04T05:51:07.889Z,6.20
2022-09-04T05:54:01.379Z,6.30
2022-09-04T05:56:44.804Z,6.50
2022-09-04T05:59:50.633Z,6.70
2022-09-04T06:02:46.330Z,6.80
2022-09-04T06:05:29.773Z,6.90
2022-09-04T06:08:01.714Z,7.10
2022-09-04T06:10:56.321Z,7.10
2022-09-04T06:13:55.348Z,7.30
2022-09-04T06:16:43.909Z,7.40
2022-09-04T06:19:44.665Z,7.50
2022-09-04T06:22:11.773Z,7.70
2022-09-04T06:24:53.867Z,7.80
2022-09-04T06:27:39.395Z,7.80
2022-09-04T06:30:09.065Z,8.00
2022-09-04T06:33:03.064Z,8.10
2022-09-04T06:35:48.849Z,8.20
2022-09-04T06:38:49.835Z,8.30
2022-09-04T06:41:58.654Z,8.50
2022-09-04T06:45:23.101Z,8.60
2022-09-04T06:47:50.264Z,8.80
2022-09-04T06:50:56.705Z,8.90
2022-09-04T06:53:42.688Z,9.00
2022-09-04T06:56:17.577Z,9.20
2022-09-04T06:59:14.069Z,9.30
2022-09-04T07:02:07.881Z,9.50
2022-09-04T07:04:59.596Z,9.60
2022-09-04T07:07:47.541Z,9.70
2022-09-04T07:10:37.178Z,9.90
2022-09-04T07:13:35.854Z,10.00
2022-09-04T07:16:21.414Z,10.10
2022-09-04T07:19:08.250Z,10.20
2022-09-04T07:22:00.649Z,10.30
2022-09-04T07:24:50.232Z,10.50
2022-09-04T07:27:26.969Z,10.60
2022-09-04T07:30:14.196Z,10.70
2022-09-04T07:32:55.645Z,10.80
2022-09-04T07:35:38.555Z,10.90
2022-09-04T07:38:31.133Z,11.00
2022-09-04T07:41:10.785Z,11.10
2022-09-04T07:44:18.219Z,11.20
2022-09-04T07:47:14.593Z,11.30
2022-09-04T07:50:01.656Z,11.50
2022-09-04T07:53:04.172Z,11.50
2022-09-04T07:55:47.588Z,11.60
2022-09-04T07:58:49.615Z,11.80
2022-09-04T08:01:25.517Z,11.90
2022-09-04T08:04:05.066Z,12.00
2022-09-04T08:06:55.316Z,12.10
2022-09-04T08:09:43.967Z,12.30
2022-09-04T08:12:22.289Z,12.30
2022-09-04T08:14:56.582Z,12.40
2022-09-04T08:18:01.839Z,12.50
2022-09-04T08:20:43.405Z,12.60
2022-09-04T08:23:58.064Z,12.80
2022-09-04T08:26:51.012Z,12.90
2022-09-04T08:29:21.285Z,13.00
2022-09-04T08:32:19.415Z,13.10
2022-09-04T08:34:53.260Z,13.20
2022-09-04T08:37:24.936Z,13.30
2022-09-04T08:40:15.979Z,13.30
2022-09-04T08:43:17.249Z,13.40
2022-09-04T08:46:11.911Z,13.50
2022-09-04T08:49:28.756Z,13.60
2022-09-04T08:52:26.346Z,13.70
2022-09-04T08:55:31.263Z,13.70
2022-09-04T08:58:35.754Z,13.60
2022-09-04T09:01:15.230Z,13.60
2022-09-04T09:04:03.683Z,13.60
2022-09-04T09:06:49.397Z,13.70
2022-09-04T09:09:29.117Z,13.80
2022-09-04T09:12:28.345Z,13.90
2022-09-04T09:15:40.315Z,14.10
2022-09-04T09:18:36.403Z,14.20
2022-09-04T09:21:09.333Z,14.40
2022-09-04T09:23:57.253Z,14.50
2022-09-04T09:26:29.520Z,14.60
2022-09-04T09:29:27.726Z,14.50
2022-09-04T09:32:38.836Z,14.50
2022-09-04T09:35:09.037Z,14.30
2022-09-04T09:37:42.120Z,14.30
2022-09-04T09:41:11.159Z,14.50
2022-09-04T09:43:59.318Z,14.70
2022-09-04T09:46:45.775Z,14.90
2022-09-04T09:49:33.710Z,15.10
2022-09-04T09:52:06.998Z,15.10
2022-09-04T09:55:11.499Z,15.20
2022-09-04T09:58:02.466Z,15.30
2022-09-04T10:00:57.440Z,15.30
2022-09-04T10:03:49.120Z,15.20
2022-09-04T10:06:34.210Z,15.30
2022-09-04T10:09:33.040Z,15.30
2022-09-04T10:12:32.127Z,15.20
2022-09-04T10:15:20.933Z,15.30
2022-09-04T10:18:06.422Z,15.40
2022-09-04T10:20:54.193Z,15.50
2022-09-04T10:23:43.089Z,15.40
2022-09-04T10:26:26.995Z,15.20
2022-09-04T10:29:18.764Z,15.20
2022-09-04T10:31:58.001Z,15.10
2022-09-04T10:34:38.512Z,14.90
2022-09-04T10:37:26.960Z,14.70
2022-09-04T10:40:43.333Z,14.90
2022-09-04T10:43:48.204Z,15.30
2022-09-04T10:46:22.641Z,15.70
2022-09-04T10:48:54.285Z,16.10
2022-09-04T10:51:43.776Z,16.10
2022-09-04T10:54:17.068Z,16.10
2022-09-04T10:57:02.804Z,16.00
2022-09-04T10:59:38.599Z,15.80
2022-09-04T11:02:42.606Z,15.60
2022-09-04T11:05:46.726Z,15.60
2022-09-04T11:08:36.655Z,15.50
2022-09-04T11:11:12.411Z,15.40
2022-09-04T11:13:51.738Z,15.60
2022-09-04T11:16:37.573Z,16.10
2022-09-04T11:19:21.284Z,16.50
2022-09-04T11:21:51.298Z,16.70
2022-09-04T11:24:37.700Z,16.70
2022-09-04T11:27:33.775Z,16.70
2022-09-04T11:30:21.166Z,16.80
2022-09-04T11:33:40.261Z,17.10
2022-09-04T11:36:35.785Z,17.30
2022-09-04T11:39:29.914Z,17.30
2022-09-04T11:42:44.947Z,17.30
2022-09-04T11:45:38.256Z,17.10
2022-09-04T11:48:27.026Z,16.70
2022-09-04T11:51:18.051Z,16.30
2022-09-04T11:54:06.697Z,15.90
2022-09-04T11:56:58.264Z,15.70
2022-09-04T11:59:43.750Z,15.40
2022-09-04T12:02:28.890Z,15.30
2022-09-04T12:05:01.380Z,15.20
2022-09-04T12:07:46.263Z,15.20
2022-09-04T12:10:21.964Z,15.20
2022-09-04T12:13:38.111Z,15.20
2022-09-04T12:16:13.985Z,15.20
2022-09-04T12:18:46.862Z,15.30
2022-09-04T12:21:36.104Z,15.40
2022-09-04T12:24:12.136Z,15.50
2022-09-04T12:26:51.599Z,15.70
2022-09-04T12:29:39.003Z,15.80
2022-09-04T12:32:30.482Z,15.70
2022-09-04T12:35:03.633Z,15.70
2022-09-04T12:37:44.306Z,15.60
2022-09-04T12:40:30.037Z,15.50
2022-09-04T12:43:38.648Z,15.40
2022-09-04T12:46:31.216Z,15.40
2022-09-04T12:49:29.787Z,15.40
2022-09-04T12:52:31.308Z,15.40
2022-09-04T12:55:16.333Z,15.40
2022-09-04T12:57:49.426Z,15.40
2022-09-04T13:00:17.842Z,15.40
2022-09-04T13:03:05.321Z,15.30
2022-09-04T13:06:04.469Z,15.30
2022-09-04T13:08:57.407Z,15.20
2022-09-04T13:11:49.161Z,15.10
2022-09-04T13:14:40.170Z,15.00
2022-09-04T13:17:37.625Z,15.10
2022-09-04T13:20:35.296Z,15.30
2022-09-04T13:23:27.160Z,15.60
2022-09-04T13:26:08.083Z,15.80
2022-09-04T13:29:00.264Z,15.90
2022-09-04T13:31:50.165Z,15.90
2022-09-04T13:34:41.610Z,15.80
2022-09-04T13:37:21.920Z,15.80
2022-09-04T13:40:06.949Z,15.70
2022-09-04T13:42:55.649Z,15.60
2022-09-04T13:45:29.670Z,15.40
2022-09-04T13:48:04.292Z,15.40
2022-09-04T13:50:38.153Z,15.50
2022-09-04T13:53:12.523Z,15.90
2022-09-04T13:55:50.377Z,16.50
2022-09-04T13:58:24.150Z,17.10
2022-09-04T14:01:00.608Z,17.50
2022-09-04T14:03:35.537Z,17.80
2022-09-04T14:06:10.279Z,17.70
2022-09-04T14:08:39.979Z,17.70
2022-09-04T14:11:37.590Z,17.90
2022-09-04T14:14:43.265Z,18.00
2022-09-04T14:17:12.201Z,17.60
2022-09-04T14:19:51.513Z,17.30
2022-09-04T14:22:37.114Z,16.90
2022-09-04T14:25:11.674Z,16.70
2022-09-04T14:27:44.886Z,16.50
2022-09-04T14:30:25.413Z,16.30
2022-09-04T14:33:19.070Z,15.90
2022-09-04T14:35:51.033Z,15.60
2022-09-04T14:38:39.146Z,15.40
2022-09-04T14:41:18.514Z,15.30
2022-09-04T14:44:04.007Z,15.20
2022-09-04T14:46:52.555Z,15.00
2022-09-04T14:49:23.783Z,14.70
2022-09-04T14:51:56.855Z,14.30
2022-09-04T14:54:36.464Z,14.10
2022-09-04T14:57:25.605Z,13.80
2022-09-04T15:00:15.096Z,13.60
2022-09-04T15:02:54.504Z,13.40
2022-09-04T15:05:56.983Z,13.20
2022-09-04T15:08:40.777Z,13.20
2022-09-04T15:11:31.410Z,13.20
2022-09-04T15:14:33.334Z,13.20
2022-09-04T15:17:09.171Z,13.30
2022-09-04T15:19:41.188Z,13.30
2022-09-04T15:22:36.228Z,13.40
2022-09-04T15:25:18.649Z,13.40
2022-09-04T15:27:55.094Z,13.50
2022-09-04T15:30:24.893Z,13.50
2022-09-04T15:33:06.663Z,13.60
2022-09-04T15:35:35.316Z,13.70
2022-09-04T15:38:25.689Z,14.10
2022-09-04T15:41:15.684Z,14.70
2022-09-04T15:43:54.487Z,15.40
2022-09-04T15:46:37.142Z,16.00
2022-09-04T15:49:40.234Z,16.50
2022-09-04T15:52:43.990Z,17.00
2022-09-04T15:55:31.663Z,17.10
2022-09-04T15:58:08.866Z,16.80
2022-09-04T16:00:56.714Z,16.60
2022-09-04T16:03:30.933Z,16.50
2022-09-04T16:06:03.475Z,16.50
2022-09-04T16:08:38.273Z,16.60
2022-09-04T16:11:39.108Z,16.60
2022-09-04T16:14:17.033Z,16.70
2022-09-04T16:17:15.221Z,16.60
2022-09-04T16:19:58.014Z,16.30
2022-09-04T16:22:49.983Z,16.00
2022-09-04T16:25:35.044Z,15.70
2022-09-04T16:28:12.425Z,15.40
2022-09-04T16:30:47.679Z,15.10
2022-09-04T16:33:28.506Z,14.90
2022-09-04T16:36:09.062Z,14.70
2022-09-04T16:38:52.624Z,14.50
2022-09-04T16:41:46.940Z,14.30
2022-09-04T16:44:28.352Z,14.20
2022-09-04T16:47:09.392Z,14.00
2022-09-04T16:49:40.115Z,13.90
2022-09-04T16:52:32.183Z,13.70
2022-09-04T16:55:10.713Z,13.60
2022-09-04T16:58:10.972Z,13.50
2022-09-04T17:01:16.467Z,13.30
2022-09-04T17:04:12.780Z,13.20
2022-09-04T17:07:31.394Z,13.10
2022-09-04T17:10:54.133Z,12.90
2022-09-04T17:13:28.804Z,12.80
2022-09-04T17:16:22.787Z,12.80
2022-09-04T17:18:53.815Z,12.60
2022-09-04T17:24:18.814Z,12.50
2022-09-04T17:29:12.478Z,12.40
2022-09-04T17:29:19.378Z,12.30
2022-09-04T17:31:23.440Z,12.20
2022-09-04T17:40:33.383Z,12.00
2022-09-04T17:40:35.700Z,11.90
2022-09-04T17:40:50.561Z,11.80
2022-09-04T17:43:22.539Z,11.70
2022-09-04T17:46:26.676Z,11.60
2022-09-04T17:48:55.795Z,11.50
2022-09-04T17:51:33.881Z,11.40
2022-09-04T17:54:07.311Z,11.30
2022-09-04T17:56:49.289Z,11.20
2022-09-04T17:59:37.452Z,11.10
2022-09-04T18:02:10.686Z,11.10
2022-09-04T18:04:50.994Z,11.10
2022-09-04T18:08:10.016Z,11.00
2022-09-04T18:10:58.145Z,11.00
2022-09-04T18:14:18.053Z,10.90
2022-09-04T18:17:11.901Z,10.80
2022-09-04T18:19:46.513Z,10.70
2022-09-04T18:22:32.074Z,10.60
2022-09-04T18:25:27.622Z,10.60
2022-09-04T18:28:17.873Z,10.60
2022-09-04T18:37:10.040Z,10.60
2022-09-04T18:37:17.418Z,10.50
2022-09-04T18:37:26.549Z,10.60
2022-09-04T18:39:49.783Z,10.40
2022-09-04T18:48:19.112Z,10.40
2022-09-04T18:50:36.253Z,10.40
2022-09-04T18:50:43.339Z,10.40
2022-09-04T18:51:30.635Z,10.40
2022-09-04T18:54:27.337Z,10.30
2022-09-04T18:56:58.843Z,10.30
2022-09-04T18:59:28.162Z,10.30
2022-09-04T19:02:12.059Z,10.30
2022-09-04T19:04:59.106Z,10.30
2022-09-04T19:07:52.578Z,10.20
2022-09-04T19:10:31.574Z,10.20
2022-09-04T19:13:07.637Z,10.10
2022-09-04T19:15:45.561Z,10.00
2022-09-04T19:18:28.276Z,9.90
2022-09-04T19:21:14.508Z,9.80
2022-09-04T19:23:51.501Z,9.70
2022-09-04T19:26:26.394Z,9.50
2022-09-04T19:29:04.938Z,9.50
2022-09-04T19:31:49.519Z,9.40
2022-09-04T19:34:35.583Z,9.30
2022-09-04T19:38:19.307Z,9.20
2022-09-04T19:46:02.417Z,9.10
2022-09-04T19:46:19.136Z,9.10
2022-09-04T19:46:45.079Z,9.00
2022-09-04T19:49:59.779Z,9.00
2022-09-04T19:53:30.585Z,8.90
2022-09-04T19:55:34.491Z,8.90
2022-09-04T19:58:11.828Z,8.90
2022-09-04T20:00:57.928Z,8.80
2022-09-04T20:03:31.665Z,8.80
2022-09-04T20:06:20.577Z,8.70
2022-09-04T20:09:22.004Z,8.70
2022-09-04T20:12:35.341Z,8.70
2022-09-04T20:15:14.262Z,8.60
2022-09-04T20:17:54.552Z,8.50
2022-09-04T20:20:38.974Z,8.50
2022-09-04T20:23:35.380Z,8.40
2022-09-04T20:26:24.743Z,8.30
2022-09-04T20:29:27.662Z,8.20
2022-09-04T20:32:09.279Z,8.10
2022-09-04T20:34:36.494Z,8.00
2022-09-04T20:37:14.219Z,7.90
2022-09-04T20:40:01.613Z,7.90
2022-09-04T20:42:38.230Z,7.90
2022-09-04T20:49:16.682Z,7.90
2022-09-04T20:52:43.865Z,7.90
2022-09-04T20:53:05.539Z,7.90
2022-09-04T20:54:28.741Z,7.90
2022-09-04T21:01:49.457Z,7.80
2022-09-04T21:03:21.363Z,7.80
2022-09-04T21:03:31.067Z,7.70
2022-09-04T21:06:26.301Z,7.70
2022-09-04T21:09:11.387Z,7.70
2022-09-04T21:12:16.771Z,7.70
2022-09-04T21:14:50.793Z,7.60
2022-09-04T21:17:35.822Z,7.50
2022-09-04T21:20:03.464Z,7.40
2022-09-04T21:22:52.402Z,7.40
2022-09-04T21:25:44.740Z,7.40
2022-09-04T21:28:49.681Z,7.30
2022-09-04T21:31:33.002Z,7.30
2022-09-04T21:34:44.683Z,7.20
2022-09-04T21:37:29.002Z,7.20
2022-09-04T21:40:51.187Z,7.20
2022-09-04T21:43:58.299Z,7.10
2022-09-04T21:47:07.378Z,7.00
2022-09-04T21:49:48.079Z,7.00
2022-09-04T21:52:41.680Z,6.90
2022-09-04T21:57:43.076Z,6.90
2022-09-04T22:02:35.824Z,6.80
2022-09-04T22:02:35.905Z,6.80
2022-09-04T22:05:18.700Z,6.70
2022-09-04T22:13:18.836Z,6.60
2022-09-04T22:13:38.522Z,6.50
2022-09-04T22:14:08.074Z,6.40
2022-09-04T22:17:04.727Z,6.30
2022-09-04T22:19:56.643Z,6.20
2022-09-04T22:22:44.687Z,6.10
2022-09-04T22:25:47.770Z,6.10
2022-09-04T22:28:45.693Z,6.10
2022-09-04T22:31:24.834Z,6.10
2022-09-04T22:34:18.970Z,6.10
2022-09-04T22:37:23.398Z,6.00
2022-09-04T22:40:26.183Z,6.00
2022-09-04T22:43:07.676Z,5.90
2022-09-04T22:45:52.720Z,5.80
2022-09-04T22:49:11.933Z,5.80
2022-09-04T22:51:55.963Z,5.80
2022-09-04T22:54:53.549Z,5.80
2022-09-04T22:57:53.582Z,5.80
2022-09-04T23:00:22.187Z,5.70
2022-09-04T23:03:09.388Z,5.80
2022-09-04T23:06:11.337Z,5.70
2022-09-04T23:13:44.035Z,5.80
2022-09-04T23:13:49.432Z,5.80
2022-09-04T23:15:13.186Z,5.70
2022-09-04T23:22:11.349Z,5.70
2022-09-04T23:26:44.826Z,5.70
2022-09-04T23:26:45.336Z,5.70
2022-09-04T23:28:27.994Z,5.60
2022-09-04T23:31:29.196Z,5.50
2022-09-04T23:34:15.642Z,5.50
2022-09-04T23:37:11.791Z,5.40
2022-09-04T23:40:11.023Z,5.30
2022-09-04T23:42:41.217Z,5.20
2022-09-04T23:45:14.305Z,5.20
2022-09-04T23:48:03.255Z,5.10
2022-09-04T23:50:48.915Z,5.10
2022-09-04T23:53:36.892Z,5.10
2022-09-04T23:56:27.184Z,5.10
2022-09-04T23:59:20.431Z,5.00
